createdAt,value
2022-09-16T00:01:20.307Z,4.22
2022-09-16T00:03:50.453Z,4.03
2022-09-16T00:06:27.627Z,3.97
2022-09-16T00:08:58.549Z,3.20
2022-09-16T00:11:28.924Z,3.65
2022-09-16T00:13:59.026Z,4.10
2022-09-16T00:16:29.490Z,3.53
2022-09-16T00:19:01.085Z,4.10
2022-09-16T00:21:31.395Z,3.63
2022-09-16T00:24:01.820Z,3.97
2022-09-16T00:26:32.182Z,4.00
2022-09-16T00:29:02.300Z,4.07
2022-09-16T00:31:35.815Z,3.35
2022-09-16T00:34:06.205Z,3.38
2022-09-16T00:36:36.246Z,3.97
2022-09-16T00:39:06.364Z,3.88
2022-09-16T00:41:39.051Z,4.38
2022-09-16T00:44:10.198Z,3.78
2022-09-16T00:46:45.379Z,3.30
2022-09-16T00:49:17.814Z,3.72
2022-09-16T00:54:19.249Z,3.65
2022-09-16T00:56:49.634Z,4.40
2022-09-16T00:59:24.254Z,3.92
2022-09-16T01:01:54.517Z,3.45
2022-09-16T01:04:45.523Z,3.08
2022-09-16T01:07:15.628Z,3.30
2022-09-16T01:09:50.644Z,3.47
2022-09-16T01:12:22.464Z,3.42
2022-09-16T01:14:55.621Z,3.45
2022-09-16T01:17:29.301Z,3.53
2022-09-16T01:19:59.402Z,3.22
2022-09-16T01:22:38.691Z,3.40
2022-09-16T01:25:17.771Z,3.80
2022-09-16T01:27:53.901Z,3.42
2022-09-16T01:30:33.471Z,3.55
2022-09-16T01:33:06.029Z,3.90
2022-09-16T01:35:46.382Z,3.63
2022-09-16T01:38:28.638Z,3.80
2022-09-16T01:41:04.798Z,3.42
2022-09-16T01:43:34.787Z,3.28
2022-09-16T01:46:07.724Z,3.50
2022-09-16T01:48:45.087Z,3.55
2022-09-16T01:51:33.964Z,3.38
2022-09-16T01:54:10.274Z,3.35
2022-09-16T01:56:43.530Z,3.20
2022-09-16T01:59:16.496Z,3.85
2022-09-16T02:01:48.678Z,3.38
2022-09-16T02:04:24.805Z,3.55
2022-09-16T02:06:57.103Z,3.42
2022-09-16T02:09:29.455Z,2.80
2022-09-16T02:14:30.618Z,3.25
2022-09-16T02:17:04.394Z,3.22
2022-09-16T02:19:36.716Z,3.03
2022-09-16T02:22:07.879Z,3.22
2022-09-16T02:24:38.124Z,2.97
2022-09-16T02:27:10.283Z,3.03
2022-09-16T02:29:41.771Z,2.97
2022-09-16T02:32:11.840Z,4.20
2022-09-16T02:34:51.728Z,3.17
2022-09-16T02:37:27.225Z,3.22
2022-09-16T02:39:59.133Z,3.15
2022-09-16T02:42:29.749Z,3.78
2022-09-16T02:44:59.805Z,2.67
2022-09-16T02:47:33.551Z,3.00
2022-09-16T02:50:14.463Z,3.20
2022-09-16T02:52:50.812Z,3.33
2022-09-16T02:55:28.149Z,3.00
2022-09-16T02:57:58.287Z,2.70
2022-09-16T03:00:28.278Z,3.30
2022-09-16T03:02:58.747Z,3.53
2022-09-16T03:05:31.926Z,3.58
2022-09-16T03:08:05.249Z,2.95
2022-09-16T03:10:40.479Z,2.65
2022-09-16T03:13:12.712Z,2.75
2022-09-16T03:15:52.040Z,2.65
2022-09-16T03:18:28.600Z,2.53
2022-09-16T03:21:02.943Z,2.63
2022-09-16T03:23:34.081Z,3.20
2022-09-16T03:26:22.779Z,2.80
2022-09-16T03:28:56.228Z,3.25
2022-09-16T03:31:38.035Z,3.47
2022-09-16T03:34:27.621Z,3.20
2022-09-16T03:37:17.026Z,3.10
2022-09-16T03:39:58.013Z,3.10
2022-09-16T03:42:28.161Z,3.00
2022-09-16T03:44:58.598Z,3.13
2022-09-16T03:47:28.563Z,2.72
2022-09-16T03:49:58.664Z,3.05
2022-09-16T03:52:28.736Z,3.58
2022-09-16T03:54:59.104Z,3.45
2022-09-16T03:57:31.480Z,3.42
2022-09-16T04:02:45.849Z,3.53
2022-09-16T04:05:16.025Z,3.88
2022-09-16T04:07:46.154Z,3.53
2022-09-16T04:10:16.207Z,3.28
2022-09-16T04:12:46.546Z,3.10
2022-09-16T04:15:16.777Z,3.47
2022-09-16T04:17:46.911Z,3.70
2022-09-16T04:20:17.118Z,3.67
2022-09-16T04:22:47.662Z,3.65
2022-09-16T04:25:17.718Z,3.38
2022-09-16T04:27:47.827Z,3.85
2022-09-16T04:30:18.065Z,3.60
2022-09-16T04:32:48.588Z,3.80
2022-09-16T04:35:20.690Z,4.25
2022-09-16T04:37:51.532Z,4.15
2022-09-16T04:40:21.915Z,3.67
2022-09-16T04:42:52.677Z,3.60
2022-09-16T04:45:23.140Z,4.60
2022-09-16T04:48:01.885Z,4.20
2022-09-16T04:50:32.249Z,3.70
2022-09-16T04:53:02.640Z,3.90
2022-09-16T04:55:33.596Z,3.47
2022-09-16T04:58:03.780Z,3.85
2022-09-16T05:00:33.764Z,3.90
2022-09-16T05:03:04.202Z,3.30
2022-09-16T05:05:34.772Z,4.20
2022-09-16T05:08:05.514Z,4.28
2022-09-16T05:10:36.296Z,3.97
2022-09-16T05:13:06.718Z,4.43
2022-09-16T05:15:36.813Z,3.60
2022-09-16T05:18:07.061Z,4.03
2022-09-16T05:20:38.764Z,4.30
2022-09-16T05:23:09.259Z,3.45
2022-09-16T05:25:39.519Z,4.18
2022-09-16T05:28:09.551Z,3.83
2022-09-16T05:30:39.708Z,3.95
2022-09-16T05:33:09.766Z,3.90
2022-09-16T05:35:39.783Z,4.55
2022-09-16T05:38:09.902Z,3.75
2022-09-16T05:40:40.045Z,4.20
2022-09-16T05:43:10.382Z,3.92
2022-09-16T05:45:40.462Z,4.60
2022-09-16T05:48:10.521Z,4.78
2022-09-16T05:50:40.621Z,4.00
2022-09-16T05:53:10.656Z,4.47
2022-09-16T05:55:40.782Z,4.28
2022-09-16T05:58:10.896Z,4.65
2022-09-16T06:00:40.926Z,4.32
2022-09-16T06:03:11.035Z,5.18
2022-09-16T06:05:45.555Z,4.80
2022-09-16T06:08:15.994Z,4.47
2022-09-16T06:10:46.087Z,3.90
2022-09-16T06:13:20.602Z,4.65
2022-09-16T06:15:52.347Z,4.85
2022-09-16T06:18:22.593Z,5.05
2022-09-16T06:20:52.709Z,4.25
2022-09-16T06:23:23.646Z,3.92
2022-09-16T06:26:06.595Z,5.72
2022-09-16T06:28:37.025Z,4.53
2022-09-16T06:31:08.372Z,4.28
2022-09-16T06:33:38.567Z,4.73
2022-09-16T06:36:12.512Z,3.90
2022-09-16T06:38:42.793Z,5.43
2022-09-16T06:41:13.258Z,4.28
2022-09-16T06:43:43.699Z,4.70
2022-09-16T06:46:17.752Z,4.47
2022-09-16T06:48:48.686Z,4.15
2022-09-16T06:51:19.823Z,4.22
2022-09-16T06:53:50.104Z,4.50
2022-09-16T06:56:21.054Z,4.10
2022-09-16T06:58:54.193Z,4.70
2022-09-16T07:01:25.191Z,4.43
2022-09-16T07:03:55.492Z,4.80
2022-09-16T07:06:44.930Z,4.00
2022-09-16T07:09:15.757Z,4.32
2022-09-16T07:11:46.032Z,3.65
2022-09-16T07:14:16.377Z,3.85
2022-09-16T07:16:46.507Z,4.60
2022-09-16T07:19:16.526Z,4.25
2022-09-16T07:21:46.798Z,4.65
2022-09-16T07:24:16.948Z,4.47
2022-09-16T07:26:47.097Z,5.25
2022-09-16T07:29:17.981Z,4.00
2022-09-16T07:31:48.015Z,5.25
2022-09-16T07:34:18.193Z,4.20
2022-09-16T07:36:49.176Z,4.65
2022-09-16T07:39:19.965Z,4.30
2022-09-16T07:41:50.181Z,4.30
2022-09-16T07:44:21.306Z,4.07
2022-09-16T07:46:52.371Z,4.53
2022-09-16T07:49:22.484Z,4.80
2022-09-16T07:51:52.460Z,4.32
2022-09-16T07:54:22.687Z,4.07
2022-09-16T07:56:52.711Z,3.92
2022-09-16T07:59:22.966Z,3.65
2022-09-16T08:01:53.479Z,4.03
2022-09-16T08:04:23.756Z,3.97
2022-09-16T08:06:53.809Z,4.07
2022-09-16T08:09:41.106Z,4.20
2022-09-16T08:12:13.941Z,3.78
2022-09-16T08:14:44.856Z,4.40
2022-09-16T08:17:15.045Z,4.05
2022-09-16T08:19:45.563Z,3.90
2022-09-16T08:22:16.030Z,3.78
2022-09-16T08:24:46.461Z,3.80
2022-09-16T08:27:16.555Z,3.75
2022-09-16T08:29:47.458Z,4.32
2022-09-16T08:32:18.602Z,4.85
2022-09-16T08:34:50.285Z,4.07
2022-09-16T08:37:20.352Z,3.67
2022-09-16T08:39:50.516Z,4.07
2022-09-16T08:42:23.379Z,3.72
2022-09-16T08:45:17.298Z,3.78
2022-09-16T08:47:50.580Z,3.50
2022-09-16T08:50:25.034Z,3.65
2022-09-16T08:52:55.850Z,3.63
2022-09-16T08:55:56.078Z,3.33
2022-09-16T08:58:29.559Z,3.38
2022-09-16T09:01:01.287Z,4.22
2022-09-16T09:03:44.920Z,3.38
2022-09-16T09:06:20.641Z,4.57
2022-09-16T09:09:20.248Z,3.38
2022-09-16T09:12:10.847Z,3.15
2022-09-16T09:15:01.837Z,3.45
2022-09-16T09:17:48.094Z,3.65
2022-09-16T09:20:22.681Z,3.45
2022-09-16T09:23:05.783Z,3.80
2022-09-16T09:25:39.092Z,3.65
2022-09-16T09:28:22.643Z,2.95
2022-09-16T09:30:57.433Z,3.08
2022-09-16T09:33:48.900Z,3.05
2022-09-16T09:36:24.965Z,3.17
2022-09-16T09:39:07.500Z,2.90
2022-09-16T09:41:45.895Z,3.55
2022-09-16T09:44:16.177Z,3.42
2022-09-16T09:46:52.480Z,3.15
2022-09-16T09:49:30.319Z,3.38
2022-09-16T09:52:09.212Z,3.42
2022-09-16T09:54:39.838Z,2.58
2022-09-16T09:57:19.435Z,4.15
2022-09-16T09:59:52.452Z,6.07
2022-09-16T10:02:23.691Z,8.77
2022-09-16T10:05:00.383Z,5.15
2022-09-16T10:07:30.463Z,5.18
2022-09-16T10:10:01.617Z,6.63
2022-09-16T10:12:36.446Z,5.05
2022-09-16T10:15:07.389Z,4.85
2022-09-16T10:17:38.679Z,4.70
2022-09-16T10:20:21.212Z,4.25
2022-09-16T10:25:29.547Z,5.93
2022-09-16T10:28:02.012Z,4.82
2022-09-16T10:33:07.917Z,4.18
2022-09-16T10:35:38.619Z,4.53
2022-09-16T10:38:21.570Z,3.17
2022-09-16T10:41:00.157Z,3.53
2022-09-16T10:43:30.535Z,3.88
2022-09-16T10:46:00.734Z,4.00
2022-09-16T10:48:31.260Z,3.00
2022-09-16T10:51:03.484Z,3.72
2022-09-16T10:53:39.135Z,2.97
2022-09-16T10:56:22.204Z,4.20
2022-09-16T10:59:03.376Z,3.35
2022-09-16T11:01:54.811Z,3.03
2022-09-16T11:04:31.544Z,2.67
2022-09-16T11:07:02.032Z,4.00
2022-09-16T11:09:38.404Z,3.80
2022-09-16T11:12:16.418Z,3.50
2022-09-16T11:15:13.039Z,3.85
2022-09-16T11:17:46.327Z,4.15
2022-09-16T11:20:19.683Z,3.97
2022-09-16T11:22:52.244Z,3.55
2022-09-16T11:25:45.894Z,3.42
2022-09-16T11:28:34.629Z,4.10
2022-09-16T11:31:10.985Z,3.30
2022-09-16T11:33:47.039Z,3.20
2022-09-16T11:36:35.562Z,2.78
2022-09-16T11:39:24.103Z,2.78
2022-09-16T11:42:09.204Z,2.83
2022-09-16T11:44:44.403Z,2.88
2022-09-16T11:47:27.929Z,2.97
2022-09-16T11:50:13.363Z,2.95
2022-09-16T11:52:43.457Z,3.63
2022-09-16T11:55:28.858Z,2.85
2022-09-16T11:58:03.332Z,3.42
2022-09-16T12:00:34.510Z,2.63
2022-09-16T12:03:27.722Z,2.90
2022-09-16T12:06:04.896Z,3.53
2022-09-16T12:08:34.974Z,2.95
2022-09-16T12:11:09.568Z,2.55
2022-09-16T12:13:47.687Z,2.80
2022-09-16T12:16:22.755Z,2.80
2022-09-16T12:18:58.986Z,3.47
2022-09-16T12:21:37.300Z,3.58
2022-09-16T12:24:22.661Z,2.20
2022-09-16T12:27:08.327Z,3.42
2022-09-16T12:29:53.543Z,2.20
2022-09-16T12:32:44.452Z,2.05
2022-09-16T12:35:18.724Z,3.47
2022-09-16T12:37:50.307Z,2.63
2022-09-16T12:40:20.940Z,3.67
2022-09-16T12:43:09.659Z,2.30
2022-09-16T12:45:39.820Z,2.63
2022-09-16T12:48:15.897Z,2.30
2022-09-16T12:51:04.139Z,2.22
2022-09-16T12:53:40.418Z,2.75
2022-09-16T12:56:11.375Z,2.40
2022-09-16T12:58:41.575Z,2.38
2022-09-16T13:01:14.712Z,2.17
2022-09-16T13:03:45.884Z,2.85
2022-09-16T13:06:34.975Z,2.45
2022-09-16T13:09:17.699Z,2.20
2022-09-16T13:12:31.837Z,2.33
2022-09-16T13:14:48.743Z,1.98
2022-09-16T13:17:28.669Z,2.53
2022-09-16T13:19:59.642Z,3.00
2022-09-16T13:22:32.969Z,3.08
2022-09-16T13:25:06.988Z,2.70
2022-09-16T13:27:38.129Z,2.17
2022-09-16T13:30:12.515Z,2.00
2022-09-16T13:32:59.826Z,2.15
2022-09-16T13:35:45.846Z,2.63
2022-09-16T13:38:21.820Z,2.92
2022-09-16T13:40:55.498Z,2.33
2022-09-16T13:43:38.667Z,2.35
2022-09-16T13:46:11.948Z,2.33
2022-09-16T13:48:44.314Z,2.13
2022-09-16T13:53:48.107Z,2.28
2022-09-16T13:56:18.371Z,1.90
2022-09-16T13:59:14.834Z,2.10
2022-09-16T14:02:06.535Z,1.95
2022-09-16T14:04:45.784Z,2.15
2022-09-16T14:07:15.837Z,2.38
2022-09-16T14:09:54.783Z,1.40
2022-09-16T14:12:31.460Z,2.20
2022-09-16T14:15:01.829Z,2.35
2022-09-16T14:17:39.042Z,2.08
2022-09-16T14:20:09.218Z,2.00
2022-09-16T14:22:39.296Z,2.35
2022-09-16T14:25:29.710Z,2.25
2022-09-16T14:28:29.337Z,1.98
2022-09-16T14:31:05.005Z,1.85
2022-09-16T14:33:36.026Z,2.20
2022-09-16T14:36:13.312Z,1.90
2022-09-16T14:41:42.508Z,1.40
2022-09-16T14:44:12.515Z,1.90
2022-09-16T14:46:45.424Z,2.05
2022-09-16T14:49:16.093Z,2.20
2022-09-16T14:51:46.724Z,1.70
2022-09-16T14:54:20.177Z,1.75
2022-09-16T14:57:05.888Z,1.50
2022-09-16T14:59:39.425Z,1.55
2022-09-16T15:02:24.310Z,1.65
2022-09-16T15:04:58.804Z,1.88
2022-09-16T15:07:34.240Z,1.92
2022-09-16T15:10:04.845Z,2.38
2022-09-16T15:12:38.490Z,1.80
2022-09-16T15:15:12.713Z,2.20
2022-09-16T15:17:42.734Z,2.03
2022-09-16T15:20:26.776Z,2.00
2022-09-16T15:22:57.838Z,2.40
2022-09-16T15:25:35.386Z,2.10
2022-09-16T15:28:18.794Z,2.42
2022-09-16T15:30:57.549Z,2.15
2022-09-16T15:33:38.127Z,2.38
2022-09-16T15:36:09.031Z,2.00
2022-09-16T15:38:43.598Z,2.63
2022-09-16T15:41:15.418Z,1.95
2022-09-16T15:43:46.367Z,2.30
2022-09-16T15:46:23.075Z,1.70
2022-09-16T15:49:02.974Z,2.63
2022-09-16T15:51:50.966Z,2.22
2022-09-16T15:54:24.636Z,2.30
2022-09-16T15:57:05.277Z,2.03
2022-09-16T15:59:41.085Z,2.35
2022-09-16T16:02:28.632Z,1.98
2022-09-16T16:05:08.503Z,1.70
2022-09-16T16:07:48.047Z,2.28
2022-09-16T16:10:21.996Z,1.90
2022-09-16T16:12:52.496Z,2.05
2022-09-16T16:15:29.415Z,1.90
2022-09-16T16:18:04.429Z,2.25
2022-09-16T16:20:39.316Z,3.03
2022-09-16T16:23:19.001Z,2.17
2022-09-16T16:25:49.544Z,2.38
2022-09-16T16:28:19.828Z,1.42
2022-09-16T16:30:49.914Z,2.33
2022-09-16T16:33:20.104Z,1.98
2022-09-16T16:35:50.459Z,1.48
2022-09-16T16:38:20.793Z,1.92
2022-09-16T16:40:54.527Z,1.60
2022-09-16T16:43:24.674Z,1.70
2022-09-16T16:46:02.532Z,1.88
2022-09-16T16:48:33.054Z,1.60
2022-09-16T16:51:07.089Z,1.48
2022-09-16T16:53:38.787Z,1.30
2022-09-16T16:56:15.870Z,1.77
2022-09-16T16:58:46.024Z,1.75
2022-09-16T17:01:17.777Z,1.30
2022-09-16T17:03:52.674Z,1.40
2022-09-16T17:06:23.059Z,1.67
2022-09-16T17:08:53.063Z,1.20
2022-09-16T17:11:24.310Z,1.50
2022-09-16T17:13:55.256Z,1.33
2022-09-16T17:16:26.166Z,1.40
2022-09-16T17:18:57.174Z,1.50
2022-09-16T17:21:28.360Z,1.20
2022-09-16T17:23:58.955Z,1.42
2022-09-16T17:26:29.833Z,1.50
2022-09-16T17:29:03.792Z,1.20
2022-09-16T17:31:42.542Z,1.23
2022-09-16T17:34:14.210Z,1.35
2022-09-16T17:36:46.004Z,1.15
2022-09-16T17:39:17.945Z,1.13
2022-09-16T17:41:50.005Z,1.20
2022-09-16T17:44:20.624Z,1.15
2022-09-16T17:46:50.811Z,1.30
2022-09-16T17:49:24.935Z,1.27
2022-09-16T17:51:55.353Z,1.30
2022-09-16T17:54:25.337Z,1.20
2022-09-16T17:56:55.385Z,1.25
2022-09-16T17:59:26.417Z,1.13
2022-09-16T18:01:56.413Z,0.80
2022-09-16T18:04:26.624Z,0.98
2022-09-16T18:06:56.867Z,1.30
2022-09-16T18:09:27.316Z,1.00
2022-09-16T18:11:59.535Z,1.00
2022-09-16T18:14:29.595Z,1.00
2022-09-16T18:17:00.809Z,1.10
2022-09-16T18:19:30.901Z,1.35
2022-09-16T18:22:00.920Z,1.15
2022-09-16T18:24:30.885Z,1.10
2022-09-16T18:27:02.583Z,1.27
2022-09-16T18:29:32.764Z,1.23
2022-09-16T18:32:02.932Z,1.10
2022-09-16T18:34:33.636Z,1.25
2022-09-16T18:37:03.937Z,0.80
2022-09-16T18:39:34.060Z,1.08
2022-09-16T18:42:04.079Z,1.23
2022-09-16T18:44:34.509Z,0.95
2022-09-16T18:47:04.557Z,1.00
2022-09-16T18:49:34.595Z,1.20
2022-09-16T18:52:04.871Z,1.30
2022-09-16T18:54:34.947Z,1.20
2022-09-16T18:57:05.067Z,1.58
2022-09-16T18:59:35.659Z,1.10
2022-09-16T19:02:06.824Z,0.93
2022-09-16T19:04:40.063Z,0.85
2022-09-16T19:07:10.494Z,0.80
2022-09-16T19:09:43.815Z,1.10
2022-09-16T19:12:14.468Z,1.50
2022-09-16T19:14:44.673Z,0.90
2022-09-16T19:17:14.821Z,1.10
2022-09-16T19:19:44.959Z,0.63
2022-09-16T19:22:15.317Z,0.77
2022-09-16T19:24:45.541Z,0.98
2022-09-16T19:27:16.056Z,0.88
2022-09-16T19:29:46.378Z,0.90
2022-09-16T19:32:16.709Z,0.73
2022-09-16T19:34:46.738Z,0.80
2022-09-16T19:37:16.752Z,0.60
2022-09-16T19:39:46.942Z,0.70
2022-09-16T19:42:17.215Z,0.80
2022-09-16T19:44:47.287Z,1.00
2022-09-16T19:47:17.710Z,0.80
2022-09-16T19:49:47.757Z,0.60
2022-09-16T19:52:17.759Z,0.70
2022-09-16T19:54:48.164Z,0.88
2022-09-16T19:57:18.229Z,0.63
2022-09-16T19:59:48.909Z,0.68
2022-09-16T20:02:19.218Z,0.70
2022-09-16T20:04:49.464Z,0.60
2022-09-16T20:07:21.431Z,1.02
2022-09-16T20:09:51.702Z,0.65
2022-09-16T20:12:21.814Z,0.63
2022-09-16T20:14:51.800Z,0.60
2022-09-16T20:17:21.837Z,0.90
2022-09-16T20:19:51.914Z,0.73
2022-09-16T20:22:21.874Z,0.63
2022-09-16T20:25:06.453Z,0.80
2022-09-16T20:27:42.776Z,0.60
2022-09-16T20:30:13.357Z,0.82
2022-09-16T20:32:43.472Z,0.80
2022-09-16T20:35:13.937Z,0.60
2022-09-16T20:37:45.491Z,0.77
2022-09-16T20:40:16.022Z,0.40
2022-09-16T20:42:47.450Z,0.80
2022-09-16T20:45:17.713Z,0.73
2022-09-16T20:47:47.686Z,0.80
2022-09-16T20:50:18.099Z,0.65
2022-09-16T20:52:50.644Z,0.77
2022-09-16T20:55:20.760Z,0.77
2022-09-16T20:57:51.743Z,0.70
2022-09-16T21:00:23.745Z,1.45
2022-09-16T21:02:55.809Z,0.55
2022-09-16T21:05:26.030Z,0.50
2022-09-16T21:07:56.064Z,0.80
2022-09-16T21:10:27.054Z,0.73
2022-09-16T21:12:59.161Z,0.60
2022-09-16T21:15:29.495Z,0.52
2022-09-16T21:18:00.919Z,0.60
2022-09-16T21:20:31.165Z,0.63
2022-09-16T21:23:01.869Z,0.60
2022-09-16T21:25:33.354Z,0.60
2022-09-16T21:28:03.390Z,0.80
2022-09-16T21:30:33.941Z,0.65
2022-09-16T21:33:04.598Z,0.82
2022-09-16T21:35:35.210Z,0.50
2022-09-16T21:38:05.574Z,0.57
2022-09-16T21:40:39.696Z,0.60
2022-09-16T21:43:10.252Z,0.55
2022-09-16T21:45:45.598Z,0.68
2022-09-16T21:48:17.765Z,0.60
2022-09-16T21:50:51.505Z,0.75
2022-09-16T21:53:21.805Z,0.88
2022-09-16T21:55:51.800Z,0.60
2022-09-16T21:58:21.867Z,0.70
2022-09-16T22:00:51.989Z,0.47
2022-09-16T22:03:22.074Z,0.50
2022-09-16T22:05:52.620Z,0.50
2022-09-16T22:08:22.584Z,0.57
2022-09-16T22:10:53.051Z,0.60
2022-09-16T22:13:23.051Z,0.60
2022-09-16T22:15:53.628Z,0.50
2022-09-16T22:18:23.751Z,0.57
2022-09-16T22:20:54.549Z,0.50
2022-09-16T22:23:24.713Z,0.60
2022-09-16T22:25:54.780Z,0.60
2022-09-16T22:28:25.304Z,0.60
2022-09-16T22:30:56.042Z,0.70
2022-09-16T22:33:26.167Z,0.50
2022-09-16T22:35:56.278Z,0.40
2022-09-16T22:38:26.326Z,0.60
2022-09-16T22:41:00.820Z,0.50
2022-09-16T22:43:32.037Z,0.60
2022-09-16T22:46:12.152Z,0.55
2022-09-16T22:48:42.462Z,0.60
2022-09-16T22:51:15.965Z,0.55
2022-09-16T22:53:46.071Z,0.40
2022-09-16T22:56:17.590Z,0.68
2022-09-16T22:58:47.922Z,0.50
2022-09-16T23:01:21.738Z,0.45
2022-09-16T23:03:54.579Z,0.60
2022-09-16T23:06:26.154Z,0.40
2022-09-16T23:08:56.562Z,0.77
2022-09-16T23:11:28.059Z,0.60
2022-09-16T23:13:59.323Z,0.43
2022-09-16T23:16:31.078Z,0.60
2022-09-16T23:19:02.686Z,0.50
2022-09-16T23:21:33.819Z,0.57
2022-09-16T23:24:04.620Z,0.45
2022-09-16T23:26:35.694Z,0.50
2022-09-16T23:29:06.789Z,0.60
2022-09-16T23:31:40.350Z,0.40
2022-09-16T23:34:21.480Z,0.50
2022-09-16T23:36:51.545Z,0.60
2022-09-16T23:39:21.743Z,0.60
2022-09-16T23:41:52.438Z,0.43
2022-09-16T23:44:23.620Z,0.50
2022-09-16T23:46:54.104Z,0.52
2022-09-16T23:49:24.932Z,0.45
2022-09-16T23:51:55.484Z,0.50
2022-09-16T23:54:25.670Z,0.70
2022-09-16T23:56:55.715Z,0.60
2022-09-16T23:59:25.742Z,0.65
